This is the latest recevied weather packets stored in our database for station/object VE3MJM-WX. If no packets are shown the sender has not sent any weather packets the latest 10 day(s).
| Time | Temp. | Humidity | Pressure | Rain* | Wind** | Luminosity | Snow |
|---|---|---|---|---|---|---|---|
| 1777440586 | 7.22° C | 99% | 1008 hPa | 0 mm | - | - | - |
| 1777439683 | 7.22° C | 99% | 1008.1 hPa | 0 mm | - | - | - |
| 1777438781 | 7.22° C | 99% | 1007.9 hPa | 0 mm | - | - | - |
| 1777437879 | 7.78° C | 99% | 1007.9 hPa | 0 mm | - | - | - |
| 1777436975 | 7.78° C | 97% | 1007.9 hPa | 0 mm | - | - | - |
| 1777435953 | 8.33° C | 96% | 1007.7 hPa | 0 mm | - | - | - |
| 1777435050 | 8.89° C | 95% | 1007.8 hPa | 0 mm | - | - | - |
| 1777434147 | 8.33° C | 96% | 1007.5 hPa | 0 mm | - | - | - |
| 1777433245 | 8.89° C | 95% | 1007.6 hPa | 0 mm | - | - | - |
| 1777432342 | 9.44° C | 92% | 1007.5 hPa | 0 mm | - | - | - |
| 1777431440 | 10° C | 91% | 1007.5 hPa | 0 mm | - | - | - |
| 1777430537 | 11.11° C | 86% | 1007.4 hPa | 0 mm | - | - | - |
| 1777429635 | 11.11° C | 86% | 1007.5 hPa | 0 mm | - | - | - |
| 1777428732 | 11.67° C | 86% | 1007.8 hPa | 0 mm | - | - | - |
| 1777427830 | 11.67° C | 86% | 1007.1 hPa | 0 mm | - | - | - |
| 1777426927 | 11.67° C | 85% | 1007.6 hPa | 0 mm | - | - | - |
| 1777426024 | 12.22° C | 84% | 1007.5 hPa | 0 mm | - | - | - |
| 1777425122 | 12.22° C | 85% | 1006.9 hPa | 0 mm | - | - | - |
| 1777424219 | 11.67° C | 84% | 1006.6 hPa | 0 mm | - | - | - |
| 1777423317 | 12.22° C | 83% | 1006.4 hPa | 0 mm | - | - | - |
| 1777422414 | 12.22° C | 82% | 1006.5 hPa | 0 mm | - | - | - |
| 1777421512 | 12.78° C | 80% | 1006.2 hPa | 0 mm | - | - | - |
| 1777420609 | 12.78° C | 80% | 1006.1 hPa | 0 mm | - | - | - |
| 1777419707 | 13.33° C | 77% | 1006 hPa | 0 mm | - | - | - |
| 1777418804 | 14.44° C | 76% | 1005.4 hPa | 0 mm | - | - | - |
* Rain latest hour (hover to see other rain measurements)
** Current wind speed in m/s (hover to see current wind gust speed)